createdAt,value
2022-08-03T00:01:39.338Z,19.68
2022-08-03T00:04:09.124Z,19.64
2022-08-03T00:06:37.802Z,19.61
2022-08-03T00:09:06.870Z,19.60
2022-08-03T00:11:35.381Z,19.59
2022-08-03T00:14:05.883Z,19.54
2022-08-03T00:16:34.259Z,19.51
2022-08-03T00:19:03.461Z,19.48
2022-08-03T00:21:31.633Z,19.44
2022-08-03T00:23:59.807Z,19.42
2022-08-03T00:26:27.977Z,19.43
2022-08-03T00:28:56.156Z,19.41
2022-08-03T00:31:39.925Z,19.40
2022-08-03T00:34:12.593Z,19.41
2022-08-03T00:36:40.847Z,19.41
2022-08-03T00:39:09.673Z,19.42
2022-08-03T00:41:37.913Z,19.43
2022-08-03T00:44:06.087Z,19.41
2022-08-03T00:46:34.258Z,19.39
2022-08-03T00:49:02.803Z,19.37
2022-08-03T00:51:32.079Z,19.34
2022-08-03T00:54:00.317Z,19.32
2022-08-03T00:56:28.490Z,19.34
2022-08-03T00:58:58.302Z,19.33
2022-08-03T01:01:26.512Z,19.31
2022-08-03T01:04:00.487Z,19.28
2022-08-03T01:06:46.377Z,19.25
2022-08-03T01:09:21.050Z,19.22
2022-08-03T01:12:08.120Z,19.22
2022-08-03T01:14:47.075Z,19.18
2022-08-03T01:17:25.972Z,19.17
2022-08-03T01:20:01.796Z,19.16
2022-08-03T01:23:03.593Z,19.14
2022-08-03T01:25:54.351Z,19.15
2022-08-03T01:28:29.664Z,19.16
2022-08-03T01:31:04.461Z,19.12
2022-08-03T01:33:47.483Z,19.09
2022-08-03T01:36:22.415Z,19.05
2022-08-03T01:38:59.139Z,19.00
2022-08-03T01:41:33.918Z,19.00
2022-08-03T01:44:30.047Z,18.99
2022-08-03T01:46:55.764Z,18.98
2022-08-03T01:49:26.158Z,18.97
2022-08-03T01:52:03.498Z,18.96
2022-08-03T01:54:38.004Z,18.96
2022-08-03T01:57:07.124Z,18.96
2022-08-03T01:59:37.319Z,18.96
2022-08-03T02:02:19.547Z,18.95
2022-08-03T02:04:59.471Z,18.94
2022-08-03T02:07:30.617Z,18.93
2022-08-03T02:10:00.528Z,18.90
2022-08-03T02:12:31.573Z,18.88
2022-08-03T02:15:01.107Z,18.83
2022-08-03T02:17:39.057Z,18.79
2022-08-03T02:20:13.706Z,18.76
2022-08-03T02:22:44.131Z,18.74
2022-08-03T02:25:14.154Z,18.74
2022-08-03T02:27:55.532Z,18.75
2022-08-03T02:30:31.291Z,18.74
2022-08-03T02:33:01.813Z,18.71
2022-08-03T02:35:32.648Z,18.68
2022-08-03T02:38:05.329Z,18.67
2022-08-03T02:40:34.076Z,18.67
2022-08-03T02:43:12.498Z,18.69
2022-08-03T02:45:46.029Z,18.71
2022-08-03T02:48:19.118Z,18.71
2022-08-03T02:50:48.829Z,18.71
2022-08-03T02:53:18.516Z,18.70
2022-08-03T02:55:49.477Z,18.70
2022-08-03T02:58:24.204Z,18.72
2022-08-03T03:00:53.991Z,18.74
2022-08-03T03:03:22.778Z,18.76
2022-08-03T03:05:57.552Z,18.75
2022-08-03T03:08:28.687Z,18.73
2022-08-03T03:10:59.933Z,18.72
2022-08-03T03:13:31.971Z,18.73
2022-08-03T03:16:02.926Z,18.72
2022-08-03T03:18:33.559Z,18.70
2022-08-03T03:21:05.366Z,18.69
2022-08-03T03:23:36.971Z,18.69
2022-08-03T03:26:06.379Z,18.68
2022-08-03T03:28:37.177Z,18.70
2022-08-03T03:31:09.787Z,18.72
2022-08-03T03:33:38.884Z,18.71
2022-08-03T03:36:08.110Z,18.71
2022-08-03T03:38:37.176Z,18.70
2022-08-03T03:41:06.021Z,18.70
2022-08-03T03:43:34.854Z,18.73
2022-08-03T03:46:03.461Z,18.75
2022-08-03T03:48:32.302Z,18.73
2022-08-03T03:51:02.072Z,18.73
2022-08-03T03:53:30.419Z,18.72
2022-08-03T03:56:01.772Z,18.71
2022-08-03T03:58:32.757Z,18.75
2022-08-03T04:01:01.721Z,18.72
2022-08-03T04:03:30.282Z,18.67
2022-08-03T04:06:17.195Z,18.66
2022-08-03T04:09:04.722Z,18.67
2022-08-03T04:11:39.776Z,18.70
2022-08-03T04:14:16.838Z,18.74
2022-08-03T04:16:52.488Z,18.74
2022-08-03T04:19:28.648Z,18.76
2022-08-03T04:22:01.553Z,18.74
2022-08-03T04:24:41.715Z,18.73
2022-08-03T04:27:13.139Z,18.79
2022-08-03T04:29:48.613Z,18.84
2022-08-03T04:32:18.277Z,18.88
2022-08-03T04:34:47.471Z,18.91
2022-08-03T04:37:22.321Z,18.95
2022-08-03T04:39:53.976Z,19.00
2022-08-03T04:42:27.422Z,19.07
2022-08-03T04:45:01.109Z,19.08
2022-08-03T04:47:33.756Z,19.11
2022-08-03T04:50:03.198Z,19.12
2022-08-03T04:52:32.385Z,19.13
2022-08-03T04:55:00.633Z,19.16
2022-08-03T04:57:28.808Z,19.22
2022-08-03T05:00:02.673Z,19.24
2022-08-03T05:02:32.397Z,19.26
2022-08-03T05:05:00.710Z,19.27
2022-08-03T05:07:35.538Z,19.28
2022-08-03T05:10:15.000Z,19.30
2022-08-03T05:12:46.533Z,19.32
2022-08-03T05:15:15.438Z,19.30
2022-08-03T05:17:44.327Z,19.30
2022-08-03T05:20:13.194Z,19.31
2022-08-03T05:22:44.649Z,19.30
2022-08-03T05:25:17.745Z,19.31
2022-08-03T05:27:49.240Z,19.33
2022-08-03T05:30:30.541Z,19.34
2022-08-03T05:33:03.526Z,19.33
2022-08-03T05:36:00.434Z,19.33
2022-08-03T05:38:23.844Z,19.31
2022-08-03T05:41:22.765Z,19.33
2022-08-03T05:43:46.428Z,19.39
2022-08-03T05:46:15.116Z,19.42
2022-08-03T05:48:43.803Z,19.41
2022-08-03T05:51:12.351Z,19.36
2022-08-03T05:53:43.528Z,19.36
2022-08-03T05:56:14.018Z,19.43
2022-08-03T05:58:46.249Z,19.44
2022-08-03T06:01:16.151Z,19.44
2022-08-03T06:03:45.883Z,19.43
2022-08-03T06:06:14.126Z,19.47
2022-08-03T06:08:43.732Z,19.55
2022-08-03T06:11:12.502Z,19.65
2022-08-03T06:13:41.337Z,19.73
2022-08-03T06:16:10.302Z,19.82
2022-08-03T06:18:39.087Z,19.90
2022-08-03T06:21:14.664Z,19.98
2022-08-03T06:23:54.368Z,20.07
2022-08-03T06:26:25.731Z,20.15
2022-08-03T06:28:55.123Z,20.21
2022-08-03T06:31:33.239Z,20.29
2022-08-03T06:34:32.238Z,20.34
2022-08-03T06:36:53.513Z,20.40
2022-08-03T06:39:23.459Z,20.48
2022-08-03T06:41:53.721Z,20.53
2022-08-03T06:44:21.963Z,20.59
2022-08-03T06:46:50.137Z,20.66
2022-08-03T06:49:18.579Z,20.71
2022-08-03T06:52:03.997Z,20.78
2022-08-03T06:54:35.831Z,20.84
2022-08-03T06:57:04.554Z,20.88
2022-08-03T07:00:08.851Z,20.93
2022-08-03T07:02:21.104Z,20.97
2022-08-03T07:04:49.511Z,20.98
2022-08-03T07:07:19.608Z,21.03
2022-08-03T07:09:57.168Z,21.10
2022-08-03T07:12:30.758Z,21.13
2022-08-03T07:15:01.909Z,21.15
2022-08-03T07:17:33.762Z,21.19
2022-08-03T07:20:08.284Z,21.22
2022-08-03T07:22:36.661Z,21.31
2022-08-03T07:25:05.742Z,21.32
2022-08-03T07:27:34.137Z,21.32
2022-08-03T07:30:02.310Z,21.36
2022-08-03T07:32:31.846Z,21.37
2022-08-03T07:35:01.243Z,21.41
2022-08-03T07:37:30.583Z,21.50
2022-08-03T07:40:03.198Z,21.54
2022-08-03T07:42:31.952Z,21.54
2022-08-03T07:45:00.368Z,21.54
2022-08-03T07:47:34.780Z,21.56
2022-08-03T07:50:06.358Z,21.61
2022-08-03T07:52:49.922Z,21.68
2022-08-03T07:55:22.661Z,21.72
2022-08-03T07:58:02.536Z,21.75
2022-08-03T08:00:31.188Z,21.80
2022-08-03T08:02:59.307Z,21.80
2022-08-03T08:05:29.689Z,21.82
2022-08-03T08:07:58.372Z,21.83
2022-08-03T08:10:26.545Z,21.91
2022-08-03T08:12:55.353Z,21.94
2022-08-03T08:15:23.713Z,21.98
2022-08-03T08:17:57.314Z,22.03
2022-08-03T08:20:31.470Z,22.08
2022-08-03T08:23:02.912Z,22.12
2022-08-03T08:25:32.283Z,22.17
2022-08-03T08:28:30.278Z,22.25
2022-08-03T08:30:52.897Z,22.27
2022-08-03T08:33:23.188Z,22.29
2022-08-03T08:35:53.592Z,22.30
2022-08-03T08:38:23.484Z,22.31
2022-08-03T08:40:52.251Z,22.31
2022-08-03T08:43:20.421Z,22.32
2022-08-03T08:45:54.535Z,22.40
2022-08-03T08:48:28.034Z,22.42
2022-08-03T08:50:57.974Z,22.43
2022-08-03T08:53:30.363Z,22.46
2022-08-03T08:56:02.897Z,22.48
2022-08-03T08:58:37.319Z,22.54
2022-08-03T09:01:06.951Z,22.63
2022-08-03T09:03:35.201Z,22.74
2022-08-03T09:06:04.202Z,22.81
2022-08-03T09:08:33.203Z,22.89
2022-08-03T09:11:01.574Z,22.97
2022-08-03T09:13:30.764Z,23.05
2022-08-03T09:16:22.723Z,23.12
2022-08-03T09:18:54.500Z,23.16
2022-08-03T09:21:34.673Z,23.16
2022-08-03T09:24:10.280Z,23.19
2022-08-03T09:26:53.841Z,23.26
2022-08-03T09:29:23.095Z,23.24
2022-08-03T09:32:02.845Z,23.23
2022-08-03T09:34:31.320Z,23.28
2022-08-03T09:36:59.544Z,23.40
2022-08-03T09:39:41.055Z,23.50
2022-08-03T09:42:18.435Z,23.62
2022-08-03T09:44:48.384Z,23.73
2022-08-03T09:47:28.530Z,23.86
2022-08-03T09:50:07.372Z,23.94
2022-08-03T09:52:51.832Z,24.07
2022-08-03T09:56:32.706Z,24.23
2022-08-03T09:58:10.838Z,24.38
2022-08-03T10:01:03.820Z,24.46
2022-08-03T10:04:03.552Z,24.46
2022-08-03T10:06:29.095Z,24.45
2022-08-03T10:09:07.288Z,24.47
2022-08-03T10:11:40.845Z,24.52
2022-08-03T10:14:19.361Z,24.62
2022-08-03T10:16:48.831Z,24.62
2022-08-03T10:19:17.638Z,24.56
2022-08-03T10:21:54.068Z,24.51
2022-08-03T10:24:26.676Z,24.54
2022-08-03T10:27:15.199Z,24.59
2022-08-03T10:29:48.718Z,24.56
2022-08-03T10:32:52.810Z,24.45
2022-08-03T10:35:21.963Z,24.37
2022-08-03T10:37:58.804Z,24.31
2022-08-03T10:43:23.201Z,24.25
2022-08-03T10:45:52.112Z,24.25
2022-08-03T10:48:21.572Z,24.25
2022-08-03T10:50:50.821Z,24.27
2022-08-03T10:53:36.161Z,24.39
2022-08-03T10:56:27.419Z,24.56
2022-08-03T10:59:12.035Z,24.73
2022-08-03T11:01:59.480Z,24.86
2022-08-03T11:04:30.474Z,25.05
2022-08-03T11:07:17.909Z,25.15
2022-08-03T11:09:48.803Z,25.27
2022-08-03T11:12:34.753Z,25.40
2022-08-03T11:15:08.834Z,25.52
2022-08-03T11:17:46.162Z,25.66
2022-08-03T11:20:55.087Z,25.71
2022-08-03T11:24:04.129Z,25.72
2022-08-03T11:26:35.095Z,25.80
2022-08-03T11:29:29.918Z,25.83
2022-08-03T11:31:58.551Z,25.87
2022-08-03T11:34:26.926Z,25.90
2022-08-03T11:37:22.093Z,26.01
2022-08-03T11:39:53.204Z,26.20
2022-08-03T11:42:24.780Z,26.35
2022-08-03T11:45:00.372Z,26.50
2022-08-03T11:47:32.331Z,26.66
2022-08-03T11:50:02.445Z,26.80
2022-08-03T11:52:42.842Z,26.90
2022-08-03T11:55:12.929Z,27.01
2022-08-03T11:59:01.386Z,27.09
2022-08-03T12:00:32.244Z,27.12
2022-08-03T12:03:14.666Z,27.12
2022-08-03T12:05:52.758Z,27.17
2022-08-03T12:08:27.252Z,27.26
2022-08-03T12:10:57.167Z,27.34
2022-08-03T12:14:43.876Z,27.41
2022-08-03T12:16:26.723Z,27.48
2022-08-03T12:19:07.018Z,27.59
2022-08-03T12:21:35.328Z,27.62
2022-08-03T12:24:05.228Z,27.50
2022-08-03T12:26:44.684Z,27.34
2022-08-03T12:29:26.477Z,27.18
2022-08-03T12:31:56.157Z,27.22
2022-08-03T12:34:24.461Z,27.33
2022-08-03T12:36:56.537Z,27.39
2022-08-03T12:39:30.910Z,27.33
2022-08-03T12:41:59.746Z,27.23
2022-08-03T12:44:33.134Z,27.25
2022-08-03T12:47:02.843Z,27.23
2022-08-03T12:49:52.417Z,27.10
2022-08-03T12:52:23.048Z,26.97
2022-08-03T12:54:58.597Z,26.89
2022-08-03T12:57:41.514Z,26.88
2022-08-03T13:00:21.570Z,26.88
2022-08-03T13:05:57.748Z,26.89
2022-08-03T13:08:26.354Z,26.80
2022-08-03T13:10:54.609Z,26.83
2022-08-03T13:13:41.041Z,26.91
2022-08-03T13:16:09.184Z,27.01
2022-08-03T13:18:37.256Z,27.09
2022-08-03T13:21:06.354Z,27.15
2022-08-03T13:23:34.630Z,27.25
2022-08-03T13:26:02.800Z,27.35
2022-08-03T13:28:31.080Z,27.44
2022-08-03T13:30:59.456Z,27.49
2022-08-03T13:33:31.419Z,27.55
2022-08-03T13:35:59.538Z,27.59
2022-08-03T13:38:27.825Z,27.62
2022-08-03T13:40:56.863Z,27.64
2022-08-03T13:43:25.036Z,27.69
2022-08-03T13:45:57.681Z,27.73
2022-08-03T13:48:34.712Z,27.76
2022-08-03T13:51:11.550Z,27.78
2022-08-03T13:53:52.483Z,27.80
2022-08-03T13:56:20.620Z,27.80
2022-08-03T13:58:48.793Z,27.81
2022-08-03T14:01:18.563Z,27.84
2022-08-03T14:03:55.278Z,27.88
2022-08-03T14:06:25.094Z,27.90
2022-08-03T14:08:54.476Z,27.91
2022-08-03T14:11:24.203Z,27.92
2022-08-03T14:14:13.165Z,27.94
2022-08-03T14:16:41.339Z,27.94
2022-08-03T14:19:09.514Z,27.95
2022-08-03T14:21:40.554Z,27.93
2022-08-03T14:24:08.899Z,27.92
2022-08-03T14:26:37.109Z,27.90
2022-08-03T14:29:06.008Z,27.88
2022-08-03T14:32:11.093Z,27.87
2022-08-03T14:34:22.314Z,27.86
2022-08-03T14:36:55.608Z,27.84
2022-08-03T14:39:23.806Z,27.84
2022-08-03T14:41:51.903Z,27.82
2022-08-03T14:44:20.040Z,27.81
2022-08-03T14:46:48.203Z,27.79
2022-08-03T14:50:36.116Z,27.78
2022-08-03T14:52:05.579Z,27.76
2022-08-03T14:54:33.715Z,27.73
2022-08-03T14:57:01.992Z,27.68
2022-08-03T14:59:56.235Z,27.63
2022-08-03T15:02:23.924Z,27.59
2022-08-03T15:04:52.931Z,27.56
2022-08-03T15:07:21.296Z,27.53
2022-08-03T15:09:49.586Z,27.50
2022-08-03T15:12:17.874Z,27.47
2022-08-03T15:14:46.243Z,27.46
2022-08-03T15:17:14.417Z,27.45
2022-08-03T15:20:03.743Z,27.44
2022-08-03T15:22:34.680Z,27.40
2022-08-03T15:26:04.143Z,27.35
2022-08-03T15:28:03.493Z,27.28
2022-08-03T15:30:36.098Z,27.24
2022-08-03T15:33:05.310Z,27.20
2022-08-03T15:35:33.540Z,27.15
2022-08-03T15:38:04.969Z,27.10
2022-08-03T15:40:35.771Z,27.09
2022-08-03T15:43:04.236Z,27.07
2022-08-03T15:45:36.147Z,27.05
2022-08-03T15:48:06.439Z,27.03
2022-08-03T15:50:34.733Z,27.04
2022-08-03T15:53:03.092Z,27.05
2022-08-03T15:55:31.813Z,27.04
2022-08-03T15:59:09.944Z,27.04
2022-08-03T16:00:48.195Z,27.04
2022-08-03T16:03:16.370Z,27.03
2022-08-03T16:05:47.410Z,27.04
2022-08-03T16:08:15.584Z,27.07
2022-08-03T16:10:44.011Z,27.09
2022-08-03T16:13:12.459Z,27.15
2022-08-03T16:15:40.619Z,27.20
2022-08-03T16:18:09.200Z,27.22
2022-08-03T16:20:37.275Z,27.19
2022-08-03T16:23:10.574Z,27.16
2022-08-03T16:25:40.755Z,27.12
2022-08-03T16:28:13.784Z,27.08
2022-08-03T16:30:45.226Z,27.04
2022-08-03T16:33:17.401Z,26.99
2022-08-03T16:35:47.040Z,26.94
2022-08-03T16:38:18.770Z,26.89
2022-08-03T16:40:52.192Z,26.84
2022-08-03T16:43:22.536Z,26.78
2022-08-03T16:45:51.907Z,26.72
2022-08-03T16:48:20.365Z,26.67
2022-08-03T16:50:48.539Z,26.62
2022-08-03T16:53:18.592Z,26.56
2022-08-03T16:56:03.705Z,26.51
2022-08-03T16:58:41.890Z,26.46
2022-08-03T17:01:21.931Z,26.40
2022-08-03T17:04:03.034Z,26.34
2022-08-03T17:06:44.906Z,26.27
2022-08-03T17:09:21.431Z,26.21
2022-08-03T17:11:51.203Z,26.15
2022-08-03T17:14:28.505Z,26.11
2022-08-03T17:17:06.812Z,26.04
2022-08-03T17:19:39.875Z,25.97
2022-08-03T17:22:12.509Z,25.92
2022-08-03T17:24:51.350Z,25.87
2022-08-03T17:28:48.657Z,25.81
2022-08-03T17:30:18.983Z,25.75
2022-08-03T17:32:53.510Z,25.69
2022-08-03T17:35:34.542Z,25.63
2022-08-03T17:38:11.985Z,25.57
2022-08-03T17:40:49.983Z,25.51
2022-08-03T17:44:12.709Z,25.46
2022-08-03T17:46:10.923Z,25.40
2022-08-03T17:48:41.476Z,25.35
2022-08-03T17:51:31.141Z,25.30
2022-08-03T17:54:00.438Z,25.24
2022-08-03T17:56:40.323Z,25.18
2022-08-03T17:59:52.830Z,25.13
2022-08-03T18:03:01.299Z,25.05
2022-08-03T18:06:09.074Z,24.98
2022-08-03T18:08:29.958Z,24.93
2022-08-03T18:11:14.296Z,24.91
2022-08-03T18:14:16.584Z,24.85
2022-08-03T18:16:52.610Z,24.80
2022-08-03T18:20:02.184Z,24.77
2022-08-03T18:22:12.407Z,24.71
2022-08-03T18:24:42.646Z,24.66
2022-08-03T18:27:16.025Z,24.61
2022-08-03T18:29:49.013Z,24.54
2022-08-03T18:32:17.358Z,24.49
2022-08-03T18:34:53.800Z,24.45
2022-08-03T18:37:25.858Z,24.41
2022-08-03T18:39:57.978Z,24.33
2022-08-03T18:42:27.006Z,24.27
2022-08-03T18:44:56.926Z,24.21
2022-08-03T18:50:48.240Z,24.11
2022-08-03T18:54:03.659Z,24.08
2022-08-03T18:56:48.788Z,24.02
2022-08-03T18:59:30.096Z,23.98
2022-08-03T19:02:23.525Z,23.94
2022-08-03T19:04:54.408Z,23.88
2022-08-03T19:07:27.666Z,23.81
2022-08-03T19:10:09.274Z,23.74
2022-08-03T19:13:03.438Z,23.65
2022-08-03T19:15:36.385Z,23.58
2022-08-03T19:18:10.429Z,23.53
2022-08-03T19:20:40.673Z,23.51
2022-08-03T19:23:11.597Z,23.52
2022-08-03T19:25:40.728Z,23.48
2022-08-03T19:28:09.839Z,23.43
2022-08-03T19:30:40.456Z,23.39
2022-08-03T19:33:11.361Z,23.32
2022-08-03T19:35:55.421Z,23.28
2022-08-03T19:38:28.579Z,23.24
2022-08-03T19:41:01.174Z,23.17
2022-08-03T19:43:52.977Z,23.11
2022-08-03T19:46:31.079Z,23.07
2022-08-03T19:49:17.100Z,23.07
2022-08-03T19:52:01.483Z,23.07
2022-08-03T19:54:45.858Z,23.09
2022-08-03T19:57:28.729Z,23.13
2022-08-03T19:59:57.953Z,23.12
2022-08-03T20:02:28.048Z,23.11
2022-08-03T20:05:00.542Z,23.08
2022-08-03T20:07:32.584Z,23.02
2022-08-03T20:10:03.215Z,22.96
2022-08-03T20:12:39.093Z,22.90
2022-08-03T20:15:09.339Z,22.84
2022-08-03T20:17:55.366Z,22.80
2022-08-03T20:20:34.011Z,22.76
2022-08-03T20:23:07.709Z,22.71
2022-08-03T20:25:48.658Z,22.65
2022-08-03T20:28:50.262Z,22.62
2022-08-03T20:31:32.066Z,22.52
2022-08-03T20:34:06.656Z,22.45
2022-08-03T20:36:35.239Z,22.38
2022-08-03T20:39:07.524Z,22.33
2022-08-03T20:41:36.506Z,22.29
2022-08-03T20:44:06.652Z,22.23
2022-08-03T20:46:50.317Z,22.19
2022-08-03T20:49:23.691Z,22.20
2022-08-03T20:51:53.174Z,22.18
2022-08-03T20:54:29.621Z,22.17
2022-08-03T20:57:03.795Z,22.20
2022-08-03T20:59:50.092Z,22.22
2022-08-03T21:02:29.796Z,22.24
2022-08-03T21:05:09.195Z,22.25
2022-08-03T21:08:03.822Z,22.26
2022-08-03T21:10:32.709Z,22.24
2022-08-03T21:13:00.464Z,24.17
2022-08-03T21:13:17.473Z,22.18
2022-08-03T21:16:02.447Z,22.11
2022-08-03T21:18:45.916Z,22.06
2022-08-03T21:21:16.510Z,22.06
2022-08-03T21:23:48.591Z,22.04
2022-08-03T21:26:20.325Z,21.99
2022-08-03T21:28:50.960Z,21.96
2022-08-03T21:31:24.336Z,21.91
2022-08-03T21:33:56.930Z,21.85
2022-08-03T21:36:27.959Z,21.80
2022-08-03T21:38:57.414Z,21.76
2022-08-03T21:41:28.085Z,21.71
2022-08-03T21:43:56.896Z,21.70
2022-08-03T21:46:27.043Z,21.69
2022-08-03T21:50:04.514Z,21.64
2022-08-03T21:51:50.131Z,21.62
2022-08-03T21:54:21.905Z,21.63
2022-08-03T21:56:53.299Z,21.60
2022-08-03T21:59:23.728Z,21.56
2022-08-03T22:01:55.193Z,21.56
2022-08-03T22:04:50.069Z,21.52
2022-08-03T22:07:16.240Z,21.45
2022-08-03T22:09:50.938Z,21.39
2022-08-03T22:12:23.000Z,21.35
2022-08-03T22:15:00.830Z,21.33
2022-08-03T22:17:55.758Z,21.37
2022-08-03T22:20:23.887Z,21.40
2022-08-03T22:22:57.138Z,21.41
2022-08-03T22:25:31.953Z,21.36
2022-08-03T22:28:08.156Z,21.33
2022-08-03T22:30:37.163Z,21.30
2022-08-03T22:33:08.357Z,21.31
2022-08-03T22:35:48.310Z,21.33
2022-08-03T22:38:19.590Z,21.33
2022-08-03T22:40:51.283Z,21.34
2022-08-03T22:43:27.370Z,21.34
2022-08-03T22:46:09.398Z,21.34
2022-08-03T22:48:41.742Z,21.33
2022-08-03T22:51:10.673Z,21.31
2022-08-03T22:53:39.664Z,21.25
2022-08-03T22:56:09.141Z,21.14
2022-08-03T22:58:37.448Z,21.07
2022-08-03T23:01:10.438Z,21.01
2022-08-03T23:04:01.150Z,21.00
2022-08-03T23:06:39.035Z,20.98
2022-08-03T23:09:13.765Z,20.96
2022-08-03T23:11:46.076Z,20.97
2022-08-03T23:14:18.416Z,20.91
2022-08-03T23:16:47.675Z,20.88
2022-08-03T23:19:25.299Z,20.89
2022-08-03T23:22:02.859Z,20.87
2022-08-03T23:24:38.278Z,20.85
2022-08-03T23:27:08.356Z,20.85
2022-08-03T23:29:39.755Z,20.80
2022-08-03T23:32:08.803Z,20.74
2022-08-03T23:34:58.682Z,20.75
2022-08-03T23:37:27.187Z,20.79
2022-08-03T23:39:57.488Z,20.81
2022-08-03T23:42:26.355Z,20.79
2022-08-03T23:44:59.329Z,20.79
2022-08-03T23:47:47.035Z,20.77
2022-08-03T23:50:16.630Z,20.76
2022-08-03T23:53:29.424Z,20.73
2022-08-03T23:56:13.983Z,20.73
2022-08-03T23:59:04.581Z,20.74
